createdAt,value
2022-08-16T00:00:03.702Z,17.23
2022-08-16T00:02:33.124Z,17.05
2022-08-16T00:05:01.921Z,15.63
2022-08-16T00:07:30.439Z,17.00
2022-08-16T00:09:58.938Z,15.95
2022-08-16T00:12:29.456Z,15.65
2022-08-16T00:14:58.414Z,18.92
2022-08-16T00:17:27.112Z,16.52
2022-08-16T00:19:56.172Z,18.20
2022-08-16T00:22:25.007Z,17.25
2022-08-16T00:24:54.558Z,15.93
2022-08-16T00:27:22.594Z,14.75
2022-08-16T00:30:08.279Z,13.68
2022-08-16T00:32:38.997Z,15.18
2022-08-16T00:35:15.111Z,13.68
2022-08-16T00:37:56.879Z,15.95
2022-08-16T00:40:43.845Z,15.68
2022-08-16T00:43:42.785Z,12.88
2022-08-16T00:46:33.960Z,12.20
2022-08-16T00:49:03.443Z,13.30
2022-08-16T00:51:30.307Z,17.38
2022-08-16T00:53:57.804Z,15.82
2022-08-16T00:56:57.883Z,14.73
2022-08-16T00:59:18.267Z,13.27
2022-08-16T01:01:46.273Z,13.60
2022-08-16T01:04:29.704Z,14.60
2022-08-16T01:07:02.100Z,17.25
2022-08-16T01:09:34.484Z,15.88
2022-08-16T01:12:08.460Z,13.38
2022-08-16T01:14:43.418Z,14.50
2022-08-16T01:17:12.701Z,16.05
2022-08-16T01:19:48.216Z,17.30
2022-08-16T01:22:47.504Z,14.65
2022-08-16T01:25:33.649Z,19.38
2022-08-16T01:28:05.920Z,17.33
2022-08-16T01:30:36.747Z,16.95
2022-08-16T01:33:14.453Z,14.38
2022-08-16T01:38:40.269Z,14.90
2022-08-16T01:41:21.177Z,18.33
2022-08-16T01:43:53.938Z,14.85
2022-08-16T01:46:40.259Z,15.25
2022-08-16T01:49:10.207Z,17.38
2022-08-16T01:51:39.369Z,16.80
2022-08-16T01:54:06.357Z,14.60
2022-08-16T01:56:35.426Z,15.70
2022-08-16T01:59:05.909Z,14.85
2022-08-16T02:01:34.136Z,13.20
2022-08-16T02:04:10.459Z,12.95
2022-08-16T02:06:46.814Z,14.88
2022-08-16T02:09:17.906Z,14.20
2022-08-16T02:11:48.737Z,16.15
2022-08-16T02:14:26.343Z,14.45
2022-08-16T02:16:55.212Z,13.98
2022-08-16T02:19:23.608Z,17.90
2022-08-16T02:22:07.912Z,16.35
2022-08-16T02:24:42.225Z,15.73
2022-08-16T02:27:14.348Z,17.65
2022-08-16T02:29:42.885Z,17.83
2022-08-16T02:32:49.877Z,18.10
2022-08-16T02:34:59.445Z,19.60
2022-08-16T02:37:51.488Z,21.67
2022-08-16T02:40:17.052Z,22.85
2022-08-16T02:42:49.626Z,21.50
2022-08-16T02:45:20.751Z,23.20
2022-08-16T02:48:01.867Z,21.27
2022-08-16T02:50:54.814Z,23.15
2022-08-16T02:53:26.571Z,23.77
2022-08-16T02:55:53.772Z,29.05
2022-08-16T02:58:25.098Z,28.13
2022-08-16T03:00:56.050Z,30.42
2022-08-16T03:03:26.482Z,27.48
2022-08-16T03:05:59.283Z,32.35
2022-08-16T03:08:51.188Z,35.28
2022-08-16T03:11:16.759Z,34.10
2022-08-16T03:13:56.556Z,48.20
2022-08-16T03:16:38.060Z,48.15
2022-08-16T03:19:07.579Z,41.22
2022-08-16T03:21:37.792Z,37.33
2022-08-16T03:24:28.168Z,38.80
2022-08-16T03:26:57.817Z,44.83
2022-08-16T03:29:30.308Z,38.70
2022-08-16T03:31:59.148Z,41.55
2022-08-16T03:34:27.019Z,40.03
2022-08-16T03:36:54.577Z,48.00
2022-08-16T03:39:23.151Z,41.72
2022-08-16T03:41:59.246Z,48.72
2022-08-16T03:44:43.295Z,44.95
2022-08-16T03:47:11.962Z,47.72
2022-08-16T03:49:39.792Z,47.85
2022-08-16T03:52:09.076Z,45.03
2022-08-16T03:54:35.948Z,49.17
2022-08-16T03:57:11.309Z,49.55
2022-08-16T03:59:43.526Z,50.55
2022-08-16T04:02:22.314Z,52.95
2022-08-16T04:04:49.877Z,58.70
2022-08-16T04:07:17.612Z,55.95
2022-08-16T04:09:44.915Z,56.35
2022-08-16T04:12:54.536Z,50.33
2022-08-16T04:14:59.595Z,48.92
2022-08-16T04:17:26.970Z,48.33
2022-08-16T04:19:54.949Z,49.95
2022-08-16T04:22:27.359Z,52.17
2022-08-16T04:24:55.460Z,46.58
2022-08-16T04:27:28.860Z,51.83
2022-08-16T04:30:02.751Z,57.70
2022-08-16T04:32:30.540Z,53.70
2022-08-16T04:34:57.234Z,52.13
2022-08-16T04:37:23.903Z,90.13
2022-08-16T04:39:55.251Z,66.82
2022-08-16T04:42:26.482Z,55.05
2022-08-16T04:45:01.853Z,52.65
2022-08-16T04:47:35.550Z,54.40
2022-08-16T04:50:06.594Z,57.47
2022-08-16T04:52:35.961Z,52.35
2022-08-16T04:55:07.389Z,48.55
2022-08-16T04:57:35.711Z,66.25
2022-08-16T05:00:30.445Z,62.25
2022-08-16T05:02:58.664Z,57.08
2022-08-16T05:05:25.903Z,65.72
2022-08-16T05:08:28.169Z,59.60
2022-08-16T05:10:49.355Z,60.25
2022-08-16T05:13:19.476Z,64.18
2022-08-16T05:15:47.408Z,66.22
2022-08-16T05:18:17.140Z,62.97
2022-08-16T05:20:57.032Z,47.75
2022-08-16T05:23:31.686Z,53.95
2022-08-16T05:25:59.840Z,49.83
2022-08-16T05:28:37.440Z,51.75
2022-08-16T05:31:05.002Z,53.88
2022-08-16T05:33:33.722Z,51.40
2022-08-16T05:36:03.840Z,47.90
2022-08-16T05:38:39.034Z,49.30
2022-08-16T05:43:43.723Z,45.13
2022-08-16T05:46:28.888Z,49.05
2022-08-16T05:49:08.871Z,51.25
2022-08-16T05:51:41.489Z,57.33
2022-08-16T05:54:11.512Z,42.38
2022-08-16T05:56:41.577Z,36.80
2022-08-16T05:59:10.801Z,37.25
2022-08-16T06:01:38.849Z,40.00
2022-08-16T06:04:13.163Z,43.50
2022-08-16T06:06:43.526Z,31.83
2022-08-16T06:09:24.350Z,32.55
2022-08-16T06:11:52.831Z,32.25
2022-08-16T06:14:19.734Z,35.30
2022-08-16T06:16:50.781Z,40.53
2022-08-16T06:19:18.316Z,35.17
2022-08-16T06:21:46.004Z,32.05
2022-08-16T06:24:55.067Z,50.22
2022-08-16T06:27:08.706Z,28.90
2022-08-16T06:29:36.260Z,28.85
2022-08-16T06:32:04.231Z,31.48
2022-08-16T06:34:55.610Z,30.48
2022-08-16T06:37:18.906Z,42.95
2022-08-16T06:39:49.302Z,37.80
2022-08-16T06:42:19.658Z,36.45
2022-08-16T06:44:47.479Z,31.10
2022-08-16T06:47:17.285Z,32.70
2022-08-16T06:49:52.548Z,26.33
2022-08-16T06:53:00.759Z,30.80
2022-08-16T06:55:12.797Z,30.30
2022-08-16T06:57:40.276Z,30.23
2022-08-16T07:00:19.809Z,29.65
2022-08-16T07:02:53.791Z,28.63
2022-08-16T07:05:27.322Z,29.00
2022-08-16T07:08:11.433Z,23.25
2022-08-16T07:10:38.770Z,25.75
2022-08-16T07:13:11.601Z,30.27
2022-08-16T07:15:50.719Z,41.17
2022-08-16T07:18:21.230Z,28.02
2022-08-16T07:20:56.053Z,26.17
2022-08-16T07:23:37.412Z,25.75
2022-08-16T07:26:12.621Z,31.25
2022-08-16T07:28:52.275Z,25.52
2022-08-16T07:31:20.920Z,25.25
2022-08-16T07:33:52.377Z,23.70
2022-08-16T07:36:21.693Z,25.05
2022-08-16T07:38:50.168Z,23.75
2022-08-16T07:41:18.696Z,21.60
2022-08-16T07:43:48.774Z,20.83
2022-08-16T07:46:38.687Z,21.65
2022-08-16T07:49:04.360Z,21.48
2022-08-16T07:51:37.156Z,19.88
2022-08-16T07:54:09.539Z,16.48
2022-08-16T07:56:38.798Z,15.95
2022-08-16T07:59:06.954Z,16.27
2022-08-16T08:01:34.763Z,18.27
2022-08-16T08:04:02.571Z,17.98
2022-08-16T08:06:32.432Z,15.63
2022-08-16T08:09:00.288Z,17.58
2022-08-16T08:11:30.809Z,13.57
2022-08-16T08:14:02.982Z,22.02
2022-08-16T08:16:31.575Z,13.85
2022-08-16T08:19:02.450Z,15.05
2022-08-16T08:22:01.427Z,12.88
2022-08-16T08:24:18.214Z,12.63
2022-08-16T08:26:46.070Z,15.32
2022-08-16T08:29:22.840Z,13.13
2022-08-16T08:31:53.245Z,13.73
2022-08-16T08:34:22.085Z,15.25
2022-08-16T08:36:54.210Z,12.40
2022-08-16T08:39:22.118Z,16.50
2022-08-16T08:41:50.415Z,19.17
2022-08-16T08:44:28.985Z,18.58
2022-08-16T08:47:04.734Z,58.97
2022-08-16T08:49:46.134Z,15.73
2022-08-16T08:52:35.337Z,17.55
2022-08-16T08:55:10.449Z,13.32
2022-08-16T09:00:13.059Z,41.97
2022-08-16T09:02:42.824Z,16.58
2022-08-16T09:05:15.816Z,16.25
2022-08-16T09:08:01.447Z,27.58
2022-08-16T09:10:31.140Z,17.20
2022-08-16T09:12:59.187Z,16.40
2022-08-16T09:15:32.853Z,20.10
2022-08-16T09:18:24.721Z,18.67
2022-08-16T09:20:59.626Z,16.48
2022-08-16T09:23:41.195Z,17.85
2022-08-16T09:26:45.331Z,18.35
2022-08-16T09:29:14.835Z,16.02
2022-08-16T09:31:43.921Z,16.88
2022-08-16T09:34:17.191Z,17.60
2022-08-16T09:36:46.374Z,18.70
2022-08-16T09:39:16.085Z,17.73
2022-08-16T09:41:43.886Z,21.67
2022-08-16T09:45:12.927Z,18.70
2022-08-16T09:47:15.065Z,18.65
2022-08-16T09:49:41.776Z,16.77
2022-08-16T09:52:09.987Z,15.55
2022-08-16T09:54:38.662Z,17.38
2022-08-16T09:57:14.363Z,23.58
2022-08-16T09:59:42.339Z,21.15
2022-08-16T10:02:26.791Z,39.30
2022-08-16T10:05:00.462Z,20.48
2022-08-16T10:07:44.320Z,19.40
2022-08-16T10:10:13.214Z,27.05
2022-08-16T10:13:04.459Z,17.23
2022-08-16T10:15:32.492Z,23.83
2022-08-16T10:18:02.498Z,19.98
2022-08-16T10:20:49.839Z,20.40
2022-08-16T10:23:17.194Z,22.65
2022-08-16T10:27:16.892Z,20.75
2022-08-16T10:28:39.874Z,21.00
2022-08-16T10:31:08.750Z,18.13
2022-08-16T10:33:40.683Z,19.30
2022-08-16T10:36:08.411Z,18.55
2022-08-16T10:38:39.211Z,19.23
2022-08-16T10:41:10.339Z,18.58
2022-08-16T10:43:39.439Z,18.73
2022-08-16T10:46:39.944Z,15.35
2022-08-16T10:48:56.383Z,17.25
2022-08-16T10:51:33.449Z,14.65
2022-08-16T10:54:01.870Z,12.35
2022-08-16T10:56:52.071Z,13.07
2022-08-16T10:59:38.378Z,14.68
2022-08-16T11:05:08.975Z,12.57
2022-08-16T11:07:45.446Z,9.60
2022-08-16T11:13:57.267Z,8.73
2022-08-16T11:16:25.348Z,8.88
2022-08-16T11:19:05.379Z,13.25
2022-08-16T11:21:37.660Z,11.48
2022-08-16T11:24:39.693Z,14.00
2022-08-16T11:27:35.478Z,14.23
2022-08-16T11:29:56.959Z,11.27
2022-08-16T11:32:31.416Z,12.55
2022-08-16T11:35:13.853Z,9.70
2022-08-16T11:40:44.510Z,15.23
2022-08-16T11:43:16.965Z,12.88
2022-08-16T11:45:50.694Z,13.55
2022-08-16T11:48:21.969Z,17.95
2022-08-16T11:50:48.694Z,25.60
2022-08-16T11:53:15.423Z,35.50
2022-08-16T11:55:44.175Z,32.42
2022-08-16T11:58:11.343Z,31.02
2022-08-16T12:00:50.354Z,35.53
2022-08-16T12:03:19.313Z,42.00
2022-08-16T12:05:46.722Z,44.60
2022-08-16T12:08:19.550Z,48.45
2022-08-16T12:10:49.079Z,51.13
2022-08-16T12:13:15.941Z,53.00
2022-08-16T12:15:43.423Z,52.75
2022-08-16T12:18:20.493Z,51.20
2022-08-16T12:20:47.975Z,49.30
2022-08-16T12:23:16.324Z,45.42
2022-08-16T12:25:44.655Z,26.35
2022-08-16T12:28:12.436Z,28.80
2022-08-16T12:30:43.767Z,23.55
2022-08-16T12:33:16.362Z,20.33
2022-08-16T12:35:52.487Z,26.75
2022-08-16T12:38:38.674Z,114.70
2022-08-16T12:43:56.907Z,51.97
2022-08-16T12:46:30.904Z,54.75
2022-08-16T12:48:58.646Z,55.53
2022-08-16T12:51:59.965Z,55.67
2022-08-16T12:54:22.088Z,53.15
2022-08-16T12:56:50.555Z,55.63
2022-08-16T12:59:20.469Z,55.50
2022-08-16T13:01:47.855Z,57.95
2022-08-16T13:04:20.813Z,68.18
2022-08-16T13:09:26.845Z,54.60
2022-08-16T13:12:07.548Z,58.95
2022-08-16T13:14:41.661Z,53.80
2022-08-16T13:17:18.876Z,50.63
2022-08-16T13:20:18.344Z,53.58
2022-08-16T13:22:38.100Z,53.30
2022-08-16T13:25:08.732Z,45.25
2022-08-16T13:28:01.400Z,41.83
2022-08-16T13:30:35.796Z,46.25
2022-08-16T13:33:13.405Z,39.75
2022-08-16T13:35:45.770Z,47.28
2022-08-16T13:38:25.067Z,58.05
2022-08-16T13:40:57.185Z,60.13
2022-08-16T13:43:28.869Z,65.88
2022-08-16T13:46:04.598Z,68.75
2022-08-16T13:48:42.933Z,66.65
2022-08-16T13:51:16.989Z,74.93
2022-08-16T13:53:59.664Z,68.38
2022-08-16T13:56:36.929Z,71.65
2022-08-16T13:59:19.465Z,70.63
2022-08-16T14:01:55.439Z,67.82
2022-08-16T14:04:27.532Z,64.07
2022-08-16T14:06:56.257Z,62.63
2022-08-16T14:09:23.857Z,62.88
2022-08-16T14:11:53.702Z,70.25
2022-08-16T14:14:28.923Z,67.38
2022-08-16T14:16:58.243Z,58.33
2022-08-16T14:19:26.479Z,59.58
2022-08-16T14:22:14.415Z,58.95
2022-08-16T14:24:45.327Z,56.25
2022-08-16T14:27:14.198Z,112.53
2022-08-16T14:29:42.341Z,55.85
2022-08-16T14:32:21.921Z,53.90
2022-08-16T14:34:59.929Z,53.97
2022-08-16T14:37:28.855Z,53.55
2022-08-16T14:39:58.784Z,50.80
2022-08-16T14:42:27.714Z,52.67
2022-08-16T14:45:00.244Z,49.22
2022-08-16T14:47:31.573Z,54.90
2022-08-16T14:50:01.877Z,59.22
2022-08-16T14:52:54.197Z,51.85
2022-08-16T14:55:16.087Z,50.60
2022-08-16T14:57:43.657Z,56.88
2022-08-16T15:00:13.138Z,73.05
2022-08-16T15:02:43.891Z,83.93
2022-08-16T15:05:12.925Z,76.03
2022-08-16T15:07:41.303Z,72.53
2022-08-16T15:10:21.684Z,51.00
2022-08-16T15:12:58.287Z,80.18
2022-08-16T15:15:27.920Z,91.80
2022-08-16T15:17:56.430Z,189.00
2022-08-16T15:20:26.790Z,72.25
2022-08-16T15:22:56.935Z,67.28
2022-08-16T15:25:29.468Z,60.75
2022-08-16T15:27:57.842Z,55.70
2022-08-16T15:30:56.637Z,47.03
2022-08-16T15:33:16.741Z,108.68
2022-08-16T15:35:44.832Z,85.10
2022-08-16T15:38:54.833Z,70.70
2022-08-16T15:40:59.450Z,56.42
2022-08-16T15:43:39.256Z,168.48
2022-08-16T15:46:35.230Z,128.70
2022-08-16T15:49:10.427Z,189.38
2022-08-16T15:51:39.270Z,179.57
2022-08-16T15:54:21.087Z,151.00
2022-08-16T15:56:55.310Z,118.55
2022-08-16T15:59:26.932Z,85.60
2022-08-16T16:01:55.823Z,82.20
2022-08-16T16:04:25.862Z,199.88
2022-08-16T16:06:52.932Z,164.15
2022-08-16T16:09:34.718Z,117.72
2022-08-16T16:12:16.349Z,75.40
2022-08-16T16:14:52.476Z,56.25
2022-08-16T16:17:19.148Z,59.53
2022-08-16T16:19:45.776Z,62.88
2022-08-16T16:22:21.260Z,61.53
2022-08-16T16:24:51.341Z,88.32
2022-08-16T16:27:18.099Z,59.65
2022-08-16T16:29:46.408Z,59.00
2022-08-16T16:32:34.321Z,61.45
2022-08-16T16:35:04.684Z,59.88
2022-08-16T16:37:32.832Z,58.05
2022-08-16T16:40:00.217Z,104.30
2022-08-16T16:42:29.998Z,154.75
2022-08-16T16:45:01.628Z,135.45
2022-08-16T16:47:40.616Z,87.55
2022-08-16T16:50:10.152Z,80.88
2022-08-16T16:52:43.901Z,102.05
2022-08-16T16:55:12.814Z,105.90
2022-08-16T16:58:00.881Z,86.38
2022-08-16T17:00:38.559Z,78.35
2022-08-16T17:03:17.063Z,70.88
2022-08-16T17:05:56.978Z,71.75
2022-08-16T17:08:28.974Z,62.40
2022-08-16T17:10:56.216Z,62.72
2022-08-16T17:13:24.534Z,59.10
2022-08-16T17:15:53.525Z,64.13
2022-08-16T17:19:15.098Z,61.78
2022-08-16T17:21:10.000Z,81.95
2022-08-16T17:23:59.612Z,106.88
2022-08-16T17:26:28.900Z,77.45
2022-08-16T17:29:02.559Z,94.03
2022-08-16T17:31:45.189Z,124.50
2022-08-16T17:34:29.005Z,112.35
2022-08-16T17:36:59.388Z,114.00
2022-08-16T17:39:29.621Z,84.75
2022-08-16T17:42:00.201Z,79.75
2022-08-16T17:44:27.011Z,72.95
2022-08-16T17:46:53.660Z,74.43
2022-08-16T17:49:21.593Z,71.68
2022-08-16T17:51:49.245Z,75.88
2022-08-16T17:54:20.412Z,69.05
2022-08-16T17:57:01.245Z,94.22
2022-08-16T17:59:29.552Z,132.02
2022-08-16T18:01:57.631Z,118.75
2022-08-16T18:04:48.299Z,79.20
2022-08-16T18:07:12.265Z,83.55
2022-08-16T18:09:40.698Z,74.38
2022-08-16T18:12:44.786Z,67.63
2022-08-16T18:15:02.308Z,69.97
2022-08-16T18:17:28.925Z,67.47
2022-08-16T18:19:55.651Z,69.95
2022-08-16T18:22:30.579Z,64.35
2022-08-16T18:24:58.073Z,72.45
2022-08-16T18:27:27.319Z,73.03
2022-08-16T18:29:57.452Z,72.38
2022-08-16T18:32:24.830Z,70.00
2022-08-16T18:34:54.495Z,72.43
2022-08-16T18:37:34.570Z,70.43
2022-08-16T18:40:01.882Z,62.40
2022-08-16T18:42:28.906Z,73.35
2022-08-16T18:44:57.085Z,134.88
2022-08-16T18:47:23.765Z,157.52
2022-08-16T18:49:50.447Z,94.45
2022-08-16T18:53:10.325Z,73.40
2022-08-16T18:55:37.499Z,63.40
2022-08-16T18:58:14.283Z,60.15
2022-08-16T19:00:56.429Z,55.45
2022-08-16T19:03:27.108Z,55.60
2022-08-16T19:06:04.031Z,56.60
2022-08-16T19:08:31.807Z,60.45
2022-08-16T19:10:58.505Z,62.83
2022-08-16T19:13:27.890Z,62.97
2022-08-16T19:15:58.469Z,57.10
2022-08-16T19:18:26.397Z,55.88
2022-08-16T19:20:55.566Z,59.15
2022-08-16T19:23:26.267Z,52.63
2022-08-16T19:26:04.903Z,47.08
2022-08-16T19:28:50.993Z,48.47
2022-08-16T19:31:29.793Z,51.45
2022-08-16T19:33:57.955Z,58.15
2022-08-16T19:36:35.795Z,51.45
2022-08-16T19:39:18.571Z,46.58
2022-08-16T19:41:57.236Z,50.55
2022-08-16T19:44:24.441Z,50.38
2022-08-16T19:46:51.410Z,52.75
2022-08-16T19:49:18.164Z,49.08
2022-08-16T19:51:46.011Z,135.15
2022-08-16T19:54:12.792Z,99.88
2022-08-16T19:56:39.447Z,57.83
2022-08-16T19:59:36.150Z,55.40
2022-08-16T20:01:53.234Z,44.97
2022-08-16T20:04:21.765Z,45.88
2022-08-16T20:06:48.679Z,43.05
2022-08-16T20:09:16.073Z,43.25
2022-08-16T20:11:49.499Z,39.08
2022-08-16T20:14:19.267Z,40.38
2022-08-16T20:16:52.036Z,39.70
2022-08-16T20:19:18.845Z,42.83
2022-08-16T20:21:45.560Z,39.17
2022-08-16T20:24:32.959Z,36.83
2022-08-16T20:26:58.970Z,38.20
2022-08-16T20:29:27.526Z,37.22
2022-08-16T20:31:54.247Z,37.00
2022-08-16T20:34:20.945Z,33.95
2022-08-16T20:36:47.672Z,32.35
2022-08-16T20:39:14.573Z,35.47
2022-08-16T20:41:42.471Z,37.85
2022-08-16T20:44:10.867Z,32.67
2022-08-16T20:46:38.994Z,34.42
2022-08-16T20:49:09.116Z,41.25
2022-08-16T20:51:50.936Z,40.70
2022-08-16T20:54:20.575Z,34.55
2022-08-16T20:56:48.318Z,38.15
2022-08-16T20:59:15.266Z,39.88
2022-08-16T21:01:46.514Z,43.83
2022-08-16T21:04:20.206Z,44.55
2022-08-16T21:06:53.410Z,48.50
2022-08-16T21:09:32.700Z,46.38
2022-08-16T21:12:17.953Z,52.78
2022-08-16T21:14:45.623Z,53.60
2022-08-16T21:17:20.353Z,54.83
2022-08-16T21:19:47.040Z,64.88
2022-08-16T21:22:31.926Z,57.30
2022-08-16T21:25:03.078Z,63.42
2022-08-16T21:27:30.096Z,66.00
2022-08-16T21:29:56.897Z,72.15
2022-08-16T21:32:35.648Z,68.25
2022-08-16T21:35:12.054Z,148.82
2022-08-16T21:37:40.197Z,116.90
2022-08-16T21:40:12.049Z,76.10
2022-08-16T21:42:41.870Z,84.18
2022-08-16T21:45:12.483Z,79.03
2022-08-16T21:47:39.154Z,85.70
2022-08-16T21:50:09.343Z,88.20
2022-08-16T21:52:36.469Z,84.93
2022-08-16T21:55:06.712Z,95.95
2022-08-16T21:57:36.752Z,94.47
2022-08-16T22:00:11.222Z,103.40
2022-08-16T22:02:38.984Z,109.15
2022-08-16T22:05:06.261Z,100.95
2022-08-16T22:07:33.415Z,108.15
2022-08-16T22:10:00.173Z,111.75
2022-08-16T22:12:46.921Z,112.72
2022-08-16T22:15:14.611Z,109.57
2022-08-16T22:17:42.797Z,109.63
2022-08-16T22:20:10.791Z,107.30
2022-08-16T22:22:38.343Z,118.22
2022-08-16T22:25:05.925Z,110.55
2022-08-16T22:27:32.805Z,110.07
2022-08-16T22:30:00.355Z,114.18
2022-08-16T22:32:27.845Z,112.05
2022-08-16T22:34:55.581Z,115.15
2022-08-16T22:37:26.243Z,125.28
2022-08-16T22:39:52.983Z,113.70
2022-08-16T22:42:19.921Z,110.90
2022-08-16T22:44:49.172Z,118.60
2022-08-16T22:47:17.898Z,114.28
2022-08-16T22:49:44.841Z,116.13
2022-08-16T22:52:11.523Z,119.75
2022-08-16T22:54:47.675Z,116.68
2022-08-16T22:57:20.893Z,112.47
2022-08-16T22:59:47.593Z,113.70
2022-08-16T23:02:19.700Z,113.78
2022-08-16T23:04:46.389Z,113.22
2022-08-16T23:07:13.039Z,116.05
2022-08-16T23:09:39.674Z,122.70
2022-08-16T23:12:07.809Z,110.30
2022-08-16T23:14:34.494Z,112.20
2022-08-16T23:17:01.362Z,115.75
2022-08-16T23:19:28.066Z,116.78
2022-08-16T23:21:54.703Z,111.25
2022-08-16T23:24:21.345Z,115.95
2022-08-16T23:26:49.341Z,111.47
2022-08-16T23:29:24.262Z,121.45
2022-08-16T23:31:56.980Z,119.03
2022-08-16T23:34:24.935Z,117.47
2022-08-16T23:36:51.941Z,126.95
2022-08-16T23:39:18.641Z,127.80
2022-08-16T23:41:45.408Z,113.55
2022-08-16T23:44:42.379Z,126.20
2022-08-16T23:46:59.880Z,120.65
2022-08-16T23:49:55.984Z,120.35
2022-08-16T23:52:13.872Z,120.82
2022-08-16T23:54:40.523Z,122.60
2022-08-16T23:57:08.133Z,129.98
2022-08-16T23:59:48.663Z,128.25
